createdAt,value
2023-03-10T00:02:01.890Z,53.62
2023-03-10T00:05:50.114Z,53.66
2023-03-10T00:09:32.922Z,53.56
2023-03-10T00:13:15.687Z,54.36
2023-03-10T00:16:59.726Z,54.18
2023-03-10T00:20:42.359Z,54.28
2023-03-10T00:24:25.127Z,54.57
2023-03-10T00:28:07.769Z,54.31
2023-03-10T00:31:50.456Z,53.99
2023-03-10T00:35:35.686Z,53.87
2023-03-10T00:39:18.381Z,53.52
2023-03-10T00:43:01.005Z,53.42
2023-03-10T00:46:43.787Z,53.29
2023-03-10T00:50:26.620Z,52.84
2023-03-10T00:54:10.779Z,53.21
2023-03-10T00:57:53.469Z,53.54
2023-03-10T01:01:38.097Z,53.53
2023-03-10T01:05:21.240Z,53.92
2023-03-10T01:09:04.855Z,53.91
2023-03-10T01:12:48.949Z,53.87
2023-03-10T01:16:32.004Z,54.14
2023-03-10T01:20:16.737Z,54.15
2023-03-10T01:23:59.436Z,54.49
2023-03-10T01:27:42.144Z,54.39
2023-03-10T01:31:26.372Z,54.40
2023-03-10T01:35:10.051Z,55.01
2023-03-10T01:38:53.621Z,55.19
2023-03-10T01:42:36.254Z,55.18
2023-03-10T01:46:45.917Z,55.71
2023-03-10T01:50:28.704Z,55.48
2023-03-10T01:54:16.052Z,55.73
2023-03-10T01:57:59.188Z,55.66
2023-03-10T02:01:42.060Z,55.51
2023-03-10T02:05:26.097Z,55.74
2023-03-10T02:09:09.761Z,55.62
2023-03-10T02:12:52.393Z,55.61
2023-03-10T02:16:35.606Z,55.54
2023-03-10T02:20:25.458Z,55.85
2023-03-10T02:24:15.240Z,56.11
2023-03-10T02:27:59.349Z,56.64
2023-03-10T02:31:42.210Z,56.95
2023-03-10T02:35:24.956Z,56.78
2023-03-10T02:39:07.618Z,56.75
2023-03-10T02:42:50.336Z,56.75
2023-03-10T02:46:34.504Z,57.22
2023-03-10T02:50:18.128Z,57.40
2023-03-10T02:54:01.235Z,57.54
2023-03-10T02:57:43.952Z,57.72
2023-03-10T03:01:27.266Z,57.57
2023-03-10T03:05:11.368Z,57.60
2023-03-10T03:08:54.152Z,57.85
2023-03-10T03:12:36.881Z,57.83
2023-03-10T03:16:19.843Z,58.01
2023-03-10T03:20:04.803Z,57.87
2023-03-10T03:23:48.884Z,57.74
2023-03-10T03:27:31.712Z,58.16
2023-03-10T03:31:19.060Z,58.32
2023-03-10T03:35:01.808Z,57.92
2023-03-10T03:38:45.272Z,57.97
2023-03-10T03:42:29.327Z,58.05
2023-03-10T03:46:12.240Z,58.27
2023-03-10T03:49:54.937Z,57.82
2023-03-10T03:53:37.657Z,57.76
2023-03-10T03:57:20.342Z,57.26
2023-03-10T04:01:04.777Z,57.64
2023-03-10T04:04:48.198Z,58.67
2023-03-10T04:08:30.863Z,58.94
2023-03-10T04:12:13.603Z,59.61
2023-03-10T04:15:57.565Z,59.04
2023-03-10T04:19:41.663Z,58.14
2023-03-10T04:23:24.451Z,58.05
2023-03-10T04:27:09.368Z,56.97
2023-03-10T04:30:52.097Z,56.97
2023-03-10T04:34:34.755Z,56.84
2023-03-10T04:38:23.111Z,56.65
2023-03-10T04:42:06.272Z,56.20
2023-03-10T04:45:49.490Z,55.98
2023-03-10T04:49:32.372Z,56.05
2023-03-10T04:53:15.091Z,57.53
2023-03-10T04:56:59.133Z,57.90
2023-03-10T05:00:53.196Z,58.35
2023-03-10T05:04:46.244Z,58.69
2023-03-10T05:08:29.039Z,58.63
2023-03-10T05:12:13.122Z,58.86
2023-03-10T05:15:55.835Z,58.95
2023-03-10T05:19:41.360Z,58.90
2023-03-10T05:23:24.146Z,59.38
2023-03-10T05:27:08.310Z,60.20
2023-03-10T05:30:52.425Z,60.04
2023-03-10T05:34:35.129Z,60.88
2023-03-10T05:38:18.029Z,61.06
2023-03-10T05:42:00.763Z,61.18
2023-03-10T05:45:43.410Z,61.72
2023-03-10T05:49:27.453Z,61.84
2023-03-10T05:53:10.091Z,62.10
2023-03-10T05:56:52.899Z,62.51
2023-03-10T06:00:35.727Z,62.55
2023-03-10T06:04:18.469Z,62.94
2023-03-10T06:08:02.569Z,63.56
2023-03-10T06:11:45.214Z,63.15
2023-03-10T06:15:28.038Z,63.22
2023-03-10T06:19:11.618Z,63.95
2023-03-10T06:22:54.320Z,63.54
2023-03-10T06:26:38.672Z,63.64
2023-03-10T06:30:21.903Z,63.59
2023-03-10T06:34:04.877Z,63.77
2023-03-10T06:37:47.554Z,64.11
2023-03-10T06:41:30.296Z,64.35
2023-03-10T06:45:17.176Z,64.25
2023-03-10T06:49:00.170Z,64.07
2023-03-10T06:52:43.270Z,64.02
2023-03-10T06:56:26.053Z,63.82
2023-03-10T07:00:11.703Z,64.86
2023-03-10T07:03:56.101Z,65.29
2023-03-10T07:07:38.787Z,64.90
2023-03-10T07:11:22.122Z,64.54
2023-03-10T07:15:05.165Z,64.92
2023-03-10T07:18:48.043Z,64.18
2023-03-10T07:22:32.039Z,63.58
2023-03-10T07:26:15.991Z,62.62
2023-03-10T07:29:58.804Z,62.35
2023-03-10T07:33:41.535Z,65.29
2023-03-10T07:37:24.210Z,55.77
2023-03-10T07:41:14.035Z,56.21
2023-03-10T07:44:58.508Z,57.39
2023-03-10T07:48:43.410Z,58.39
2023-03-10T07:52:27.524Z,59.33
2023-03-10T07:56:13.756Z,59.27
2023-03-10T07:59:56.521Z,59.17
2023-03-10T08:03:39.408Z,59.50
2023-03-10T08:07:22.626Z,59.55
2023-03-10T08:11:06.586Z,58.92
2023-03-10T08:14:51.696Z,58.56
2023-03-10T08:18:34.740Z,58.59
2023-03-10T08:22:17.623Z,58.77
2023-03-10T08:26:01.989Z,59.03
2023-03-10T08:29:44.692Z,58.56
2023-03-10T08:33:30.699Z,58.58
2023-03-10T08:37:13.610Z,58.04
2023-03-10T08:40:56.273Z,57.94
2023-03-10T08:44:39.072Z,57.92
2023-03-10T08:48:21.780Z,57.53
2023-03-10T08:52:06.118Z,57.39
2023-03-10T08:55:48.901Z,57.25
2023-03-10T08:59:31.704Z,56.69
2023-03-10T09:03:15.525Z,55.68
2023-03-10T09:06:58.378Z,54.90
2023-03-10T09:10:43.466Z,54.75
2023-03-10T09:14:26.192Z,55.04
2023-03-10T09:18:09.560Z,54.36
2023-03-10T09:21:52.248Z,53.44
2023-03-10T09:25:35.205Z,52.98
2023-03-10T09:29:20.367Z,51.78
2023-03-10T09:33:06.240Z,51.05
2023-03-10T09:36:49.097Z,49.71
2023-03-10T09:40:32.838Z,47.69
2023-03-10T09:44:25.952Z,47.29
2023-03-10T09:48:20.779Z,46.98
2023-03-10T09:52:18.414Z,45.27
2023-03-10T09:56:01.309Z,44.88
2023-03-10T09:59:46.988Z,45.21
2023-03-10T10:03:42.947Z,45.63
2023-03-10T10:07:41.946Z,47.31
2023-03-10T10:11:24.766Z,52.02
2023-03-10T10:15:16.213Z,57.43
2023-03-10T10:19:04.496Z,57.81
2023-03-10T10:22:47.973Z,57.48
2023-03-10T10:26:30.764Z,58.75
2023-03-10T10:30:31.036Z,58.42
2023-03-10T10:34:21.060Z,58.46
2023-03-10T10:38:08.291Z,60.58
2023-03-10T10:41:51.147Z,64.25
2023-03-10T10:45:36.656Z,64.06
2023-03-10T10:49:24.569Z,64.19
2023-03-10T10:53:19.899Z,64.16
2023-03-10T10:57:02.978Z,63.70
2023-03-10T11:00:55.510Z,64.83
2023-03-10T11:04:46.320Z,64.10
2023-03-10T11:08:34.813Z,62.99
2023-03-10T11:12:22.030Z,61.43
2023-03-10T11:16:12.449Z,60.75
2023-03-10T11:20:01.747Z,60.07
2023-03-10T11:23:47.657Z,59.03
2023-03-10T11:27:42.089Z,59.45
2023-03-10T11:31:34.637Z,59.81
2023-03-10T11:35:23.457Z,60.06
2023-03-10T11:39:12.341Z,59.85
2023-03-10T11:42:58.992Z,58.58
2023-03-10T11:46:46.836Z,58.20
2023-03-10T11:50:34.402Z,56.07
2023-03-10T11:54:21.468Z,56.05
2023-03-10T11:58:05.101Z,54.99
2023-03-10T12:01:52.426Z,52.26
2023-03-10T12:05:45.060Z,51.04
2023-03-10T12:09:34.764Z,51.62
2023-03-10T12:13:23.627Z,51.48
2023-03-10T12:17:08.260Z,50.68
2023-03-10T12:21:13.816Z,50.27
2023-03-10T12:24:56.504Z,49.93
2023-03-10T12:28:39.259Z,49.49
2023-03-10T12:32:47.182Z,48.88
2023-03-10T12:36:36.467Z,48.60
2023-03-10T12:40:48.890Z,48.91
2023-03-10T12:44:35.292Z,48.35
2023-03-10T12:48:22.276Z,48.21
2023-03-10T12:52:19.487Z,47.95
2023-03-10T12:56:33.912Z,48.87
2023-03-10T13:00:24.923Z,49.65
2023-03-10T13:04:09.338Z,48.97
2023-03-10T13:07:54.508Z,48.91
2023-03-10T13:11:39.293Z,48.24
2023-03-10T13:15:25.091Z,48.77
2023-03-10T13:19:20.681Z,49.60
2023-03-10T13:23:03.483Z,49.94
2023-03-10T13:26:46.212Z,50.50
2023-03-10T13:30:29.060Z,51.52
2023-03-10T13:34:20.259Z,50.96
2023-03-10T13:38:07.872Z,51.29
2023-03-10T13:41:52.804Z,51.40
2023-03-10T13:45:35.485Z,52.18
2023-03-10T13:49:22.119Z,52.44
2023-03-10T13:53:04.895Z,52.78
2023-03-10T13:56:49.133Z,53.56
2023-03-10T14:00:32.083Z,53.22
2023-03-10T14:04:17.891Z,53.60
2023-03-10T14:08:02.300Z,53.69
2023-03-10T14:11:46.848Z,54.61
2023-03-10T14:15:31.696Z,54.78
2023-03-10T14:19:15.034Z,55.40
2023-03-10T14:22:58.074Z,55.72
2023-03-10T14:26:42.243Z,55.37
2023-03-10T14:30:27.878Z,55.32
2023-03-10T14:34:13.739Z,55.61
2023-03-10T14:37:56.943Z,55.08
2023-03-10T14:41:39.648Z,54.60
2023-03-10T14:45:29.214Z,54.35
2023-03-10T14:49:15.316Z,54.16
2023-03-10T14:52:58.336Z,53.20
2023-03-10T14:56:40.998Z,55.12
2023-03-10T15:00:24.569Z,56.96
2023-03-10T15:04:13.173Z,58.29
2023-03-10T15:07:56.001Z,59.43
2023-03-10T15:11:38.996Z,61.56
2023-03-10T15:15:23.994Z,62.37
2023-03-10T15:19:08.168Z,63.15
2023-03-10T15:22:50.971Z,62.79
2023-03-10T15:26:33.627Z,63.43
2023-03-10T15:30:19.645Z,63.87
2023-03-10T15:34:05.252Z,63.89
2023-03-10T15:37:50.546Z,65.37
2023-03-10T15:41:36.161Z,66.94
2023-03-10T15:45:19.680Z,68.15
2023-03-10T15:49:03.219Z,69.84
2023-03-10T15:52:49.311Z,71.95
2023-03-10T15:56:31.961Z,72.90
2023-03-10T16:00:16.876Z,73.98
2023-03-10T16:04:01.765Z,75.04
2023-03-10T16:07:44.627Z,74.23
2023-03-10T16:11:29.082Z,74.63
2023-03-10T16:15:12.766Z,75.23
2023-03-10T16:18:55.697Z,72.38
2023-03-10T16:22:40.666Z,72.23
2023-03-10T16:26:24.647Z,71.24
2023-03-10T16:30:10.171Z,70.86
2023-03-10T16:33:52.930Z,70.28
2023-03-10T16:37:35.539Z,68.63
2023-03-10T16:41:18.671Z,68.66
2023-03-10T16:45:01.361Z,67.56
2023-03-10T16:48:46.611Z,67.47
2023-03-10T16:52:29.297Z,67.27
2023-03-10T16:56:11.969Z,66.90
2023-03-10T16:59:54.791Z,67.11
2023-03-10T17:03:39.894Z,65.33
2023-03-10T17:07:24.000Z,67.09
2023-03-10T17:11:07.274Z,65.67
2023-03-10T17:14:55.352Z,64.84
2023-03-10T17:18:38.022Z,62.71
2023-03-10T17:22:21.096Z,61.68
2023-03-10T17:26:05.243Z,60.03
2023-03-10T17:29:47.977Z,61.22
2023-03-10T17:33:33.943Z,60.30
2023-03-10T17:37:16.677Z,60.26
2023-03-10T17:41:00.949Z,61.33
2023-03-10T17:44:45.195Z,61.48
2023-03-10T17:48:28.254Z,62.06
2023-03-10T17:52:10.966Z,61.27
2023-03-10T17:55:54.086Z,61.59
2023-03-10T17:59:39.093Z,61.62
2023-03-10T18:03:23.609Z,61.46
2023-03-10T18:07:06.748Z,62.29
2023-03-10T18:11:00.278Z,62.44
2023-03-10T18:14:43.349Z,62.92
2023-03-10T18:18:27.458Z,62.95
2023-03-10T18:22:10.138Z,63.31
2023-03-10T18:25:53.029Z,62.74
2023-03-10T18:29:35.664Z,62.85
2023-03-10T18:33:18.906Z,63.15
2023-03-10T18:37:02.956Z,62.80
2023-03-10T18:40:45.970Z,62.80
2023-03-10T18:44:28.925Z,62.55
2023-03-10T18:48:12.702Z,62.51
2023-03-10T18:51:58.354Z,62.17
2023-03-10T18:55:42.524Z,61.63
2023-03-10T18:59:25.298Z,66.18
2023-03-10T19:03:10.311Z,69.14
2023-03-10T19:06:53.117Z,67.77
2023-03-10T19:10:35.828Z,68.03
2023-03-10T19:14:19.875Z,68.58
2023-03-10T19:18:02.694Z,66.97
2023-03-10T19:21:45.329Z,66.73
2023-03-10T19:25:28.039Z,65.99
2023-03-10T19:29:11.035Z,65.60
2023-03-10T19:32:55.212Z,65.62
2023-03-10T19:36:37.880Z,65.57
2023-03-10T19:40:22.990Z,65.35
2023-03-10T19:44:06.276Z,65.58
2023-03-10T19:47:49.347Z,65.95
2023-03-10T19:51:33.732Z,65.19
2023-03-10T19:55:22.850Z,65.07
2023-03-10T19:59:06.228Z,64.58
2023-03-10T20:02:48.862Z,63.54
2023-03-10T20:06:33.179Z,63.83
2023-03-10T20:10:17.211Z,63.34
2023-03-10T20:13:59.892Z,63.70
2023-03-10T20:17:43.045Z,63.58
2023-03-10T20:21:25.898Z,64.18
2023-03-10T20:25:11.932Z,64.22
2023-03-10T20:28:54.749Z,64.52
2023-03-10T20:32:37.760Z,64.55
2023-03-10T20:36:20.446Z,64.40
2023-03-10T20:40:05.720Z,64.41
2023-03-10T20:43:50.139Z,64.60
2023-03-10T20:47:33.090Z,64.10
2023-03-10T20:51:18.017Z,64.09
2023-03-10T20:55:01.615Z,63.95
2023-03-10T20:58:44.318Z,63.63
2023-03-10T21:02:28.505Z,62.46
2023-03-10T21:06:11.222Z,61.60
2023-03-10T21:09:53.910Z,67.13
2023-03-10T21:13:36.915Z,67.00
2023-03-10T21:17:19.617Z,67.43
2023-03-10T21:21:09.401Z,68.21
2023-03-10T21:24:53.183Z,68.61
2023-03-10T21:28:36.366Z,69.09
2023-03-10T21:32:19.093Z,71.35
2023-03-10T21:36:02.094Z,74.82
2023-03-10T21:39:46.146Z,73.51
2023-03-10T21:43:28.806Z,71.43
2023-03-10T21:47:11.460Z,70.63
2023-03-10T21:50:54.134Z,69.96
2023-03-10T21:54:36.789Z,69.50
2023-03-10T21:58:22.018Z,68.46
2023-03-10T22:02:04.858Z,68.20
2023-03-10T22:05:47.839Z,66.86
2023-03-10T22:09:31.205Z,66.41
2023-03-10T22:13:14.266Z,65.95
2023-03-10T22:16:58.278Z,64.43
2023-03-10T22:20:41.080Z,63.55
2023-03-10T22:24:23.825Z,63.64
2023-03-10T22:28:06.594Z,63.29
2023-03-10T22:31:52.994Z,62.90
2023-03-10T22:35:37.853Z,62.80
2023-03-10T22:39:21.377Z,64.63
2023-03-10T22:43:04.099Z,69.64
2023-03-10T22:46:47.967Z,70.19
2023-03-10T22:50:33.587Z,68.71
2023-03-10T22:54:17.602Z,65.50
2023-03-10T22:58:00.285Z,63.52
2023-03-10T23:01:44.186Z,62.63
2023-03-10T23:05:28.277Z,61.58
2023-03-10T23:09:12.330Z,61.68
2023-03-10T23:13:01.086Z,62.16
2023-03-10T23:16:43.883Z,62.29
2023-03-10T23:20:29.642Z,62.42
2023-03-10T23:24:12.396Z,62.93
2023-03-10T23:27:55.191Z,62.08
2023-03-10T23:31:39.310Z,63.95
2023-03-10T23:35:23.916Z,62.01
2023-03-10T23:39:07.472Z,57.78
2023-03-10T23:42:50.196Z,58.51
2023-03-10T23:46:32.889Z,58.91
2023-03-10T23:50:20.121Z,59.30
2023-03-10T23:54:02.921Z,59.54
2023-03-10T23:57:45.714Z,59.56
